首页
METAR-TAF:

METAR-TAF

机场 :

Greater Rochester International Airport

羅徹斯特, 紐約州, 美国

纬度: 43-07-00N, 经度: 077-40-36W, 海拔: 170米

当前天气观测

该预报发布于24分钟前的15:54 UTC
风速6节,风向东北
温度 -2°C
湿度 59%
气压 1027 hPa
能見度: 16.1公里
散云层高于3100英尺
多云层高于4000英尺

METAR: KROC 171554Z 04006KT 10SM SCT031 BKN040 M02/M09 A3033 RMK AO2 SLP282 T10221094

时间: 11:18 (16:18 UTC)

预报

该预报发布于1小时和7分钟前的15:11 UTC
预报有效从17日的 15点(UTC)到 18日的 12点(UTC)
风速6节,风向
能見度: 10公里
多云层高于4000英尺
从 17日的 1800点(UTC)
风速3节,风向多变
能見度: 10公里
多云层高于10000英尺
从 18日的 0900点(UTC)
风速13节,风向东南,有时为25节阵风
能見度: 10公里
阴天层高于6000英尺
从 18日的 1000点(UTC)
风速16节,风向南转南东,有时为28节阵风
能見度: 3.2公里
阴天层高于5000英尺
小雪

TAF: KROC 171511Z 1715/1812 01006KT P6SM BKN040 FM171800 VRB03KT P6SM BKN100 FM180900 14013G25KT P6SM OVC060 FM181000 15016G28KT 2SM -SN OVC050

超过4000个机场的气象观测和天气预报(METAR&TAF报告)。

可查询的气象台以黄色和红色小点在地图上表示。

将鼠标移到小点上方,可查看气象台名称。

然后点击查看天气观测和预报。

如需切换地图:点击带黑十字的绿色按钮放大地图;点击带横线的绿色按钮缩小地图;或者点击绿色箭头查看邻近地区的地图。


METAR-TAF: